<?xml version='1.0' encoding='UTF-8'?><gpx version="1.1" creator="JPX - https://github.com/jenetics/jpx" xmlns="http://www.topografix.com/GPX/1/1"><trk><trkseg><trkpt lat="45.675024975559126" lon="9.389649210311658"><ele>244.0</ele><time>2026-03-25T20:07:44.006Z</time></trkpt><trkpt lat="45.67487416912729" lon="9.389537645995276"><ele>244.0</ele><time>2026-03-25T20:10:10.413Z</time></trkpt><trkpt lat="45.675039464967114" lon="9.3895688005888"><ele>244.0</ele><time>2026-03-25T20:10:21.004Z</time></trkpt><trkpt lat="45.67507342463369" lon="9.389653571804581"><ele>244.0</ele><time>2026-03-25T20:10:26.003Z</time></trkpt><trkpt lat="45.67501031776588" lon="9.389635161807798"><ele>244.0</ele><time>2026-03-25T20:10:33.002Z</time></trkpt><trkpt lat="45.67494259997383" lon="9.389632794109517"><ele>243.99999999999997</ele><time>2026-03-25T20:11:55.999Z</time></trkpt><trkpt lat="45.674985543315834" lon="9.389708737161532"><ele>243.99999999999997</ele><time>2026-03-25T20:12:00.999Z</time></trkpt><trkpt lat="45.67504629090258" lon="9.389770806471349"><ele>244.0</ele><time>2026-03-25T20:12:03.999Z</time></trkpt><trkpt lat="45.67492672529153" lon="9.389555379817857"><ele>244.0</ele><time>2026-03-25T20:18:53.001Z</time></trkpt><trkpt lat="45.67499492701833" lon="9.389563551836986"><ele>243.99999999999997</ele><time>2026-03-25T20:19:20Z</time></trkpt><trkpt lat="45.6749908496273" lon="9.389470367000634"><ele>244.0</ele><time>2026-03-25T20:19:57Z</time></trkpt><trkpt lat="45.674929055736726" lon="9.3893997131867"><ele>244.0</ele><time>2026-03-25T20:19:58Z</time></trkpt><trkpt lat="45.67493197338568" lon="9.389545740617793"><ele>244.0</ele><time>2026-03-25T20:20:15Z</time></trkpt><trkpt lat="45.674835310097" lon="9.389612560478081"><ele>243.99999999999997</ele><time>2026-03-25T20:20:17Z</time></trkpt><trkpt lat="45.67474972107461" lon="9.389646366683612"><ele>244.0</ele><time>2026-03-25T20:20:38Z</time></trkpt><trkpt lat="45.674647013231635" lon="9.389625164954177"><ele>244.0</ele><time>2026-03-25T20:20:40.076Z</time></trkpt><trkpt lat="45.674882636917616" lon="9.389422311086124"><ele>244.0</ele><time>2026-03-25T20:21:17.082Z</time></trkpt><trkpt lat="45.67488206367224" lon="9.38959713070009"><ele>244.0</ele><time>2026-03-25T20:22:43.011Z</time></trkpt><trkpt lat="45.67495033492265" lon="9.389586791706638"><ele>243.99999999999997</ele><time>2026-03-25T20:23:16.017Z</time></trkpt><trkpt lat="45.67501256740692" lon="9.389604246610862"><ele>244.0</ele><time>2026-03-25T20:23:21.017Z</time></trkpt><trkpt lat="45.67510813037047" lon="9.389630155798624"><ele>244.0</ele><time>2026-03-25T20:23:55.021Z</time></trkpt><trkpt lat="45.675148603486825" lon="9.389531461906511"><ele>244.0</ele><time>2026-03-25T20:24:13.017Z</time></trkpt><trkpt lat="45.67509081829226" lon="9.389567911533392"><ele>243.99999999999997</ele><time>2026-03-25T20:24:31.017Z</time></trkpt><trkpt lat="45.67501722716131" lon="9.389623223993098"><ele>244.0</ele><time>2026-03-25T20:24:46.016Z</time></trkpt><trkpt lat="45.674935527436176" lon="9.389582116432209"><ele>243.99999999999997</ele><time>2026-03-25T20:24:53.017Z</time></trkpt><trkpt lat="45.674992521970324" lon="9.389634623034286"><ele>244.0</ele><time>2026-03-25T20:24:59.016Z</time></trkpt><trkpt lat="45.67503556235493" lon="9.38972865551155"><ele>243.99999999999997</ele><time>2026-03-25T20:25:03.017Z</time></trkpt><trkpt lat="45.67511618389971" lon="9.389706507230176"><ele>243.99999999999997</ele><time>2026-03-25T20:25:05.018Z</time></trkpt><trkpt lat="45.67511306619309" lon="9.389612411890619"><ele>244.0</ele><time>2026-03-25T20:25:21.02Z</time></trkpt><trkpt lat="45.67505265350087" lon="9.389582918748255"><ele>243.99999999999997</ele><time>2026-03-25T20:25:29.02Z</time></trkpt><trkpt lat="45.6749875673127" lon="9.38956559023176"><ele>243.99999999999997</ele><time>2026-03-25T20:25:37.02Z</time></trkpt><trkpt lat="45.6749173577473" lon="9.389575477753796"><ele>243.99999999999997</ele><time>2026-03-25T20:25:59Z</time></trkpt><trkpt lat="45.67498667124551" lon="9.38960945251783"><ele>244.0</ele><time>2026-03-25T20:28:53Z</time></trkpt><trkpt lat="45.674939398922" lon="9.389496390597978"><ele>244.0</ele><time>2026-03-25T20:32:36Z</time></trkpt><trkpt lat="45.6750288212953" lon="9.389601649476932"><ele>244.0</ele><time>2026-03-25T20:33:48.999Z</time></trkpt><trkpt lat="45.67510278209243" lon="9.389525652182638"><ele>243.99999999999997</ele><time>2026-03-25T20:33:59.999Z</time></trkpt><trkpt lat="45.67504491653026" lon="9.389462877959168"><ele>244.0</ele><time>2026-03-25T20:34:10.999Z</time></trkpt><trkpt lat="45.674961787260756" lon="9.389461220346572"><ele>243.99999999999997</ele><time>2026-03-25T20:34:17.999Z</time></trkpt><trkpt lat="45.674895691395996" lon="9.389481564220162"><ele>244.0</ele><time>2026-03-25T20:34:21.999Z</time></trkpt><trkpt lat="45.67481615045928" lon="9.389535501687666"><ele>244.0</ele><time>2026-03-25T20:34:36.999Z</time></trkpt><trkpt lat="45.674752596520726" lon="9.389551447754027"><ele>244.0</ele><time>2026-03-25T20:34:40.999Z</time></trkpt><trkpt lat="45.674689127423775" lon="9.389553776064918"><ele>243.99999999999997</ele><time>2026-03-25T20:34:44.999Z</time></trkpt><trkpt lat="45.674617503329486" lon="9.389574519075042"><ele>244.0</ele><time>2026-03-25T20:34:48.999Z</time></trkpt><trkpt lat="45.674499993639756" lon="9.38958734305944"><ele>244.0</ele><time>2026-03-25T20:34:49.999Z</time></trkpt><trkpt lat="45.67463864948623" lon="9.389571179793471"><ele>243.99999999999997</ele><time>2026-03-25T20:34:58.999Z</time></trkpt><trkpt lat="45.67473782527843" lon="9.389566368741578"><ele>243.99999999999997</ele><time>2026-03-25T20:34:59.999Z</time></trkpt><trkpt lat="45.67480381549099" lon="9.389548369774491"><ele>244.0</ele><time>2026-03-25T20:35:04.999Z</time></trkpt><trkpt lat="45.6749050768198" lon="9.389550092976359"><ele>244.0</ele><time>2026-03-25T20:35:06.999Z</time></trkpt><trkpt lat="45.67484091924137" lon="9.389532460093509"><ele>244.0</ele><time>2026-03-25T20:35:11.999Z</time></trkpt><trkpt lat="45.674912323620646" lon="9.389501750327307"><ele>243.99999999999997</ele><time>2026-03-25T20:35:14.999Z</time></trkpt><trkpt lat="45.674822932277074" lon="9.38962089386962"><ele>243.99999999999997</ele><time>2026-03-25T20:35:25.999Z</time></trkpt><trkpt lat="45.67485175272346" lon="9.389465786205532"><ele>244.0</ele><time>2026-03-25T20:35:50.999Z</time></trkpt><trkpt lat="45.67496230131068" lon="9.389493293925334"><ele>244.0</ele><time>2026-03-25T20:35:54.999Z</time></trkpt><trkpt lat="45.674970875200636" lon="9.389607013529123"><ele>243.99999999999997</ele><time>2026-03-25T20:35:58.999Z</time></trkpt><trkpt lat="45.67504205704528" lon="9.389621607668108"><ele>244.0</ele><time>2026-03-25T20:36:03.999Z</time></trkpt><trkpt lat="45.67498253318314" lon="9.389568640327965"><ele>244.0</ele><time>2026-03-25T20:36:17.999Z</time></trkpt><trkpt lat="45.67498041545865" lon="9.38947100092955"><ele>244.0</ele><time>2026-03-25T20:36:23.999Z</time></trkpt><trkpt lat="45.6750672735803" lon="9.389589255035986"><ele>243.99999999999997</ele><time>2026-03-25T20:37:05.035Z</time></trkpt><trkpt lat="45.67511764458381" lon="9.389483717948284"><ele>244.0</ele><time>2026-03-25T20:38:36Z</time></trkpt><trkpt lat="45.67504474466447" lon="9.389551078604734"><ele>243.99999999999997</ele><time>2026-03-25T20:39:01Z</time></trkpt><trkpt lat="45.674987916145746" lon="9.389487668536145"><ele>244.0</ele><time>2026-03-25T20:39:03Z</time></trkpt><trkpt lat="45.67504855303565" lon="9.389546405484595"><ele>243.99999999999997</ele><time>2026-03-25T20:39:20Z</time></trkpt><trkpt lat="45.67510654007492" lon="9.389607321176122"><ele>243.99999999999997</ele><time>2026-03-25T20:39:23Z</time></trkpt><trkpt lat="45.675049079091984" lon="9.389655651265791"><ele>244.0</ele><time>2026-03-25T20:39:25Z</time></trkpt><trkpt lat="45.67496775416989" lon="9.389652801018919"><ele>243.99999999999997</ele><time>2026-03-25T20:39:30Z</time></trkpt><trkpt lat="45.674949569530796" lon="9.389565517684721"><ele>243.99999999999997</ele><time>2026-03-25T20:39:52Z</time></trkpt><trkpt lat="45.67502528450784" lon="9.389459111779006"><ele>243.99999999999997</ele><time>2026-03-25T20:40:42Z</time></trkpt><trkpt lat="45.67495695011805" lon="9.389392682242443"><ele>244.0</ele><time>2026-03-25T20:41:09.038Z</time></trkpt><trkpt lat="45.67489594127629" lon="9.389421413225454"><ele>243.99999999999997</ele><time>2026-03-25T20:41:25.032Z</time></trkpt><trkpt lat="45.67490141721711" lon="9.389538613615766"><ele>243.99999999999997</ele><time>2026-03-25T20:41:30.028Z</time></trkpt><trkpt lat="45.67497348081617" lon="9.389571460398587"><ele>244.0</ele><time>2026-03-25T20:41:35.032Z</time></trkpt><trkpt lat="45.67495342132594" lon="9.389658200932494"><ele>243.99999999999997</ele><time>2026-03-25T20:41:49.02Z</time></trkpt><trkpt lat="45.67494052104784" lon="9.389759864469768"><ele>243.99999999999997</ele><time>2026-03-25T20:42:09.021Z</time></trkpt><trkpt lat="45.67499662681692" lon="9.389679011088274"><ele>243.99999999999997</ele><time>2026-03-25T20:42:31.017Z</time></trkpt><trkpt lat="45.67503537237011" lon="9.389586257732446"><ele>244.0</ele><time>2026-03-25T20:42:37.016Z</time></trkpt><trkpt lat="45.67496562401988" lon="9.389721402886428"><ele>244.0</ele><time>2026-03-25T20:43:00.018Z</time></trkpt><trkpt lat="45.67492066046939" lon="9.389789177356539"><ele>244.0</ele><time>2026-03-25T20:43:01.025Z</time></trkpt><trkpt lat="45.674979721241385" lon="9.38975670757789"><ele>243.99999999999997</ele><time>2026-03-25T20:43:26.015Z</time></trkpt><trkpt lat="45.675054339758255" lon="9.3896677009022"><ele>244.0</ele><time>2026-03-25T20:43:29.015Z</time></trkpt><trkpt lat="45.67504303766553" lon="9.389558898729506"><ele>243.99999999999997</ele><time>2026-03-25T20:43:39.013Z</time></trkpt><trkpt lat="45.675033187728665" lon="9.3894660595275"><ele>244.0</ele><time>2026-03-25T20:43:48.016Z</time></trkpt><trkpt lat="45.67501139444686" lon="9.389377986318655"><ele>243.99999999999997</ele><time>2026-03-25T20:44:33.013Z</time></trkpt><trkpt lat="45.67495143691104" lon="9.389460705024499"><ele>243.99999999999997</ele><time>2026-03-25T20:45:12.014Z</time></trkpt><trkpt lat="45.674916602090455" lon="9.389537372427583"><ele>244.0</ele><time>2026-03-25T20:45:32.014Z</time></trkpt><trkpt lat="45.67499098688105" lon="9.389573236360484"><ele>243.99999999999997</ele><time>2026-03-25T20:45:56Z</time></trkpt><trkpt lat="45.675050685337304" lon="9.389615343619365"><ele>243.99999999999997</ele><time>2026-03-25T20:46:03Z</time></trkpt><trkpt lat="45.675113130722316" lon="9.389656559285593"><ele>244.0</ele><time>2026-03-25T20:46:05Z</time></trkpt><trkpt lat="45.674915929624866" lon="9.389568442786494"><ele>244.0</ele><time>2026-03-25T20:49:36Z</time></trkpt><trkpt lat="45.67497041211162" lon="9.38971778083508"><ele>244.0</ele><time>2026-03-25T20:54:59.001Z</time></trkpt><trkpt lat="45.67488924004366" lon="9.389632754833622"><ele>244.0</ele><time>2026-03-25T20:56:26.001Z</time></trkpt><trkpt lat="45.67482466814195" lon="9.389650909195735"><ele>244.16666666666666</ele><time>2026-03-25T20:58:36.001Z</time></trkpt><trkpt lat="45.67476394201081" lon="9.389684407609595"><ele>244.33333333333331</ele><time>2026-03-25T20:58:39.001Z</time></trkpt><trkpt lat="45.67473771253728" lon="9.389826032438135"><ele>244.5</ele><time>2026-03-25T20:58:41.001Z</time></trkpt><trkpt lat="45.67470274022095" lon="9.389920831564964"><ele>244.66666666666669</ele><time>2026-03-25T20:58:43.001Z</time></trkpt><trkpt lat="45.67467174146742" lon="9.390004298976944"><ele>244.83333333333334</ele><time>2026-03-25T20:58:44.001Z</time></trkpt><trkpt lat="45.67468713707312" lon="9.389839804465087"><ele>245.0</ele><time>2026-03-25T20:58:47.001Z</time></trkpt><trkpt lat="45.67471259423486" lon="9.389744815229397"><ele>244.83333333333334</ele><time>2026-03-25T20:58:49.001Z</time></trkpt><trkpt lat="45.67480017678463" lon="9.389658520728826"><ele>244.66666666666669</ele><time>2026-03-25T20:58:55.001Z</time></trkpt><trkpt lat="45.67481132670006" lon="9.389567174142742"><ele>244.5</ele><time>2026-03-25T20:59:21.001Z</time></trkpt><trkpt lat="45.67484089869257" lon="9.389486880353616"><ele>244.33333333333331</ele><time>2026-03-25T21:00:41Z</time></trkpt><trkpt lat="45.67487333786121" lon="9.389392052303988"><ele>244.16666666666666</ele><time>2026-03-25T21:00:50Z</time></trkpt><trkpt lat="45.67481071012149" lon="9.389295994280653"><ele>244.0</ele><time>2026-03-25T21:11:33Z</time></trkpt><trkpt lat="45.67475616048197" lon="9.389224868112079"><ele>244.0</ele><time>2026-03-25T21:11:35Z</time></trkpt><trkpt lat="45.6747434707317" lon="9.389313583045007"><ele>244.0</ele><time>2026-03-25T21:11:38Z</time></trkpt><trkpt lat="45.67477966502106" lon="9.389391529734903"><ele>244.0</ele><time>2026-03-25T21:11:41Z</time></trkpt><trkpt lat="45.67478073487127" lon="9.38949165727908"><ele>244.0</ele><time>2026-03-25T21:11:43Z</time></trkpt><trkpt lat="45.674851873384" lon="9.389428245495962"><ele>244.0</ele><time>2026-03-25T21:11:56Z</time></trkpt></trkseg></trk></gpx>